Time;durP1;ratioP1;P1;durP2;ratioP2;P2;SDS_P1;SDS_P2;PMS_P1;PMS_P2;Temp;Humidity;BMP_temperature;BMP_pressure;BME280_temperature;BME280_humidity;BME280_pressure;Samples;Min_cycle;Max_cycle;Signal;HPM_P1;HPM_P2
2022/10/29 00:01:22;;;;;;;7.93;4.63;;;17.80;99.90;;;;;;5054675;28;20460;-64
2022/10/29 00:03:50;;;;;;;10.97;5.20;;;17.80;99.90;;;;;;5055371;28;20821;-64
2022/10/29 00:06:17;;;;;;;9.67;5.10;;;17.90;99.90;;;;;;5054091;28;20445;-66
2022/10/29 00:08:44;;;;;;;9.93;5.60;;;17.90;99.90;;;;;;5054644;28;20452;-63
2022/10/29 00:11:13;;;;;;;11.00;4.63;;;17.90;99.90;;;;;;5056232;28;20452;-63
2022/10/29 00:13:40;;;;;;;10.50;5.90;;;18.00;99.90;;;;;;5055237;28;20453;-64
2022/10/29 00:16:09;;;;;;;20.87;5.87;;;18.00;99.90;;;;;;5055522;28;20486;-63
2022/10/29 00:18:36;;;;;;;9.03;5.23;;;18.00;99.90;;;;;;5054324;28;20461;-63
2022/10/29 00:21:06;;;;;;;14.10;6.00;;;18.00;99.90;;;;;;5055299;28;20809;-63
2022/10/29 00:23:34;;;;;;;11.63;6.40;;;18.00;99.90;;;;;;5056790;28;20448;-63
2022/10/29 00:26:01;;;;;;;11.23;5.90;;;18.00;99.90;;;;;;5058475;28;20536;-64
2022/10/29 00:28:29;;;;;;;13.03;6.17;;;18.00;99.90;;;;;;5060175;28;20464;-63
2022/10/29 00:30:56;;;;;;;10.93;5.60;;;17.90;99.90;;;;;;5059477;28;20452;-64
2022/10/29 00:33:23;;;;;;;11.73;5.87;;;17.90;99.90;;;;;;5060141;28;20437;-62
2022/10/29 00:35:56;;;;;;;12.60;5.30;;;17.90;99.90;;;;;;5060585;28;20479;-62
2022/10/29 00:38:25;;;;;;;12.83;5.50;;;17.90;99.90;;;;;;5059888;28;20463;-62
2022/10/29 00:40:52;;;;;;;12.40;5.90;;;17.90;99.90;;;;;;5059544;28;20820;-63
2022/10/29 00:43:21;;;;;;;18.20;6.30;;;17.90;99.90;;;;;;5058077;28;20448;-64
2022/10/29 00:45:52;;;;;;;10.13;5.03;;;17.80;99.90;;;;;;5060103;28;20452;-64
2022/10/29 00:48:20;;;;;;;12.30;5.80;;;17.80;99.90;;;;;;5058942;28;20465;-63
2022/10/29 00:50:48;;;;;;;12.00;6.10;;;17.80;99.90;;;;;;5059137;28;20448;-63
2022/10/29 00:53:19;;;;;;;11.73;5.20;;;17.80;99.90;;;;;;5058203;28;20811;-63
2022/10/29 00:55:47;;;;;;;11.53;5.47;;;17.70;99.90;;;;;;5059430;28;20471;-62
2022/10/29 00:58:14;;;;;;;13.73;6.50;;;17.60;99.90;;;;;;5091801;22;20514;-63
2022/10/29 01:00:41;;;;;;;10.53;4.90;;;17.60;99.90;;;;;;5077323;28;20446;-63
2022/10/29 01:03:08;;;;;;;9.20;5.17;;;17.60;99.90;;;;;;5077874;28;20457;-63
2022/10/29 01:05:35;;;;;;;12.83;5.67;;;17.60;99.90;;;;;;5077828;28;20450;-63
2022/10/29 01:08:03;;;;;;;10.13;5.27;;;17.60;99.90;;;;;;5077977;28;20469;-63
2022/10/29 01:10:38;;;;;;;9.73;4.93;;;17.50;99.90;;;;;;5077154;28;20431;-65
2022/10/29 01:13:25;;;;;;;14.90;7.40;;;17.50;99.90;;;;;;5076599;28;20423;-63
2022/10/29 01:16:01;;;;;;;11.10;5.97;;;17.50;99.90;;;;;;5076588;28;20482;-64
2022/10/29 01:18:36;;;;;;;8.43;5.67;;;17.50;99.90;;;;;;5079048;28;20470;-64
2022/10/29 01:21:43;;;;;;;7.40;4.93;;;17.50;99.90;;;;;;5077993;28;20435;-63
2022/10/29 01:25:00;;;;;;;10.23;6.37;;;17.50;99.90;;;;;;5076508;28;20426;-63
2022/10/29 01:27:53;;;;;;;10.87;5.80;;;17.50;99.90;;;;;;5075933;28;20474;-62
2022/10/29 01:30:33;;;;;;;14.63;5.80;;;17.50;99.90;;;;;;5076600;28;20440;-64
2022/10/29 01:33:10;;;;;;;13.63;6.20;;;17.50;99.90;;;;;;5076275;28;20434;-63
2022/10/29 01:35:47;;;;;;;14.23;7.77;;;17.40;99.90;;;;;;5076052;28;20473;-63
2022/10/29 01:38:29;;;;;;;16.43;6.37;;;17.40;99.90;;;;;;5075305;28;20467;-63
2022/10/29 01:41:02;;;;;;;11.50;6.10;;;17.40;99.90;;;;;;5076133;28;20427;-64
2022/10/29 01:43:36;;;;;;;13.67;6.77;;;17.30;99.90;;;;;;5076027;28;20447;-63
2022/10/29 01:46:09;;;;;;;13.70;6.93;;;17.30;99.90;;;;;;5076080;28;20427;-64
2022/10/29 01:48:42;;;;;;;15.00;6.90;;;17.30;99.90;;;;;;5083860;28;20981;-64
2022/10/29 01:51:14;;;;;;;13.40;6.67;;;17.20;99.90;;;;;;5083780;28;20435;-62
2022/10/29 01:53:41;;;;;;;10.87;6.63;;;17.20;99.90;;;;;;5077821;28;20860;-64
2022/10/29 01:56:08;;;;;;;17.27;7.30;;;17.20;99.90;;;;;;5076074;28;20501;-63
2022/10/29 01:58:36;;;;;;;12.93;7.13;;;17.10;99.90;;;;;;5075344;28;20478;-63
2022/10/29 02:01:19;;;;;;;15.73;8.10;;;17.10;99.90;;;;;;5075190;28;20450;-63
2022/10/29 02:03:56;;;;;;;14.27;7.90;;;17.10;99.90;;;;;;5075590;28;20467;-63
2022/10/29 02:06:35;;;;;;;11.83;8.07;;;17.10;99.90;;;;;;5075565;28;20435;-64
2022/10/29 02:09:09;;;;;;;13.73;7.33;;;17.10;99.90;;;;;;5075418;28;20464;-64
2022/10/29 02:11:46;;;;;;;16.33;8.00;;;17.10;99.90;;;;;;5075231;28;20831;-63
2022/10/29 02:14:19;;;;;;;15.93;6.97;;;17.10;99.90;;;;;;5075271;28;20920;-62
2022/10/29 02:16:46;;;;;;;13.03;7.30;;;17.10;99.90;;;;;;5075171;28;20975;-64
2022/10/29 02:19:14;;;;;;;11.33;8.00;;;17.10;99.90;;;;;;5075054;28;20442;-63
2022/10/29 02:21:43;;;;;;;15.87;7.90;;;17.10;99.90;;;;;;5075236;28;20451;-63
2022/10/29 02:24:10;;;;;;;17.23;8.40;;;17.10;99.90;;;;;;5075119;28;20486;-63
2022/10/29 02:26:36;;;;;;;11.30;7.30;;;17.00;99.90;;;;;;5074865;28;20449;-63
2022/10/29 02:29:03;;;;;;;14.63;9.23;;;17.00;99.90;;;;;;5074997;28;20470;-63
2022/10/29 02:31:30;;;;;;;16.03;8.37;;;17.00;99.90;;;;;;5075721;28;20454;-63
2022/10/29 02:33:57;;;;;;;21.20;7.83;;;17.00;99.90;;;;;;5074887;28;20451;-63
2022/10/29 02:36:25;;;;;;;12.63;7.20;;;17.00;99.90;;;;;;5074353;28;20473;-63
2022/10/29 02:38:51;;;;;;;11.47;7.17;;;17.00;99.90;;;;;;5074727;28;20542;-63
2022/10/29 02:41:18;;;;;;;15.03;9.00;;;17.00;99.90;;;;;;5074435;28;20447;-64
2022/10/29 02:43:45;;;;;;;13.10;6.93;;;16.90;99.90;;;;;;5074528;28;20452;-64
2022/10/29 02:46:13;;;;;;;14.80;7.73;;;16.80;99.90;;;;;;5074613;28;20434;-64
2022/10/29 02:48:40;;;;;;;11.50;7.73;;;16.80;99.90;;;;;;5073459;28;20470;-64
2022/10/29 02:51:07;;;;;;;12.97;7.57;;;16.80;99.90;;;;;;5074522;28;20454;-63
2022/10/29 02:53:35;;;;;;;12.70;7.90;;;16.70;99.90;;;;;;5074725;28;20443;-64
2022/10/29 02:56:02;;;;;;;13.33;7.23;;;16.60;99.90;;;;;;5074655;28;20478;-63
2022/10/29 02:58:28;;;;;;;14.67;7.90;;;16.60;99.90;;;;;;5074682;28;20478;-63
2022/10/29 03:00:55;;;;;;;13.80;7.03;;;16.50;99.90;;;;;;5075019;28;20453;-64
2022/10/29 03:03:22;;;;;;;21.53;7.43;;;16.40;99.90;;;;;;5074795;28;20456;-64
2022/10/29 03:05:49;;;;;;;12.43;7.27;;;16.30;99.90;;;;;;5074950;28;20862;-64
2022/10/29 03:08:16;;;;;;;11.90;7.47;;;16.20;99.90;;;;;;5074005;28;20843;-63
2022/10/29 03:10:44;;;;;;;12.00;7.57;;;16.20;99.90;;;;;;5074531;28;20450;-64
2022/10/29 03:13:11;;;;;;;17.80;8.20;;;16.10;99.90;;;;;;5074365;28;20458;-63
2022/10/29 03:15:38;;;;;;;13.70;8.30;;;16.10;99.90;;;;;;5074301;28;20489;-64
2022/10/29 03:18:05;;;;;;;11.93;7.20;;;16.00;99.90;;;;;;5074150;28;20473;-63
2022/10/29 03:20:32;;;;;;;12.57;8.03;;;16.00;99.90;;;;;;5074028;28;20442;-64
2022/10/29 03:22:59;;;;;;;20.70;8.43;;;15.90;99.90;;;;;;5073615;28;20968;-63
2022/10/29 03:25:25;;;;;;;17.87;8.00;;;15.80;99.90;;;;;;5073834;28;20450;-64
2022/10/29 03:27:53;;;;;;;10.60;7.40;;;15.70;99.90;;;;;;5073890;28;20462;-63
2022/10/29 03:30:20;;;;;;;15.03;7.87;;;15.70;99.90;;;;;;5073844;28;20450;-63
2022/10/29 03:32:47;;;;;;;14.27;8.53;;;15.60;99.90;;;;;;5073342;28;20446;-63
2022/10/29 03:35:16;;;;;;;18.67;9.10;;;15.60;99.90;;;;;;5073727;28;20457;-63
2022/10/29 03:37:43;;;;;;;21.20;8.40;;;15.50;99.90;;;;;;5073594;28;20466;-63
2022/10/29 03:40:10;;;;;;;15.10;8.60;;;15.50;99.90;;;;;;5073407;28;20434;-63
2022/10/29 03:42:38;;;;;;;14.30;9.23;;;15.40;99.90;;;;;;5073549;28;20449;-63
2022/10/29 03:45:08;;;;;;;10.70;8.60;;;15.40;99.90;;;;;;5073509;28;20440;-63
2022/10/29 03:47:35;;;;;;;13.93;8.70;;;15.30;99.90;;;;;;5073386;28;20454;-62
2022/10/29 03:50:02;;;;;;;11.57;8.17;;;15.30;99.90;;;;;;5073159;28;20818;-64
2022/10/29 03:52:29;;;;;;;14.37;8.00;;;15.20;99.90;;;;;;5073348;28;20453;-64
2022/10/29 03:54:55;;;;;;;12.70;8.23;;;15.20;99.90;;;;;;5075258;28;20451;-64
2022/10/29 03:57:22;;;;;;;12.57;7.90;;;15.20;99.90;;;;;;5073937;28;20845;-64
2022/10/29 03:59:49;;;;;;;10.60;7.93;;;15.20;99.90;;;;;;5073311;28;20446;-64
2022/10/29 04:02:17;;;;;;;14.70;9.30;;;15.10;99.90;;;;;;5072954;28;20445;-64
2022/10/29 04:04:43;;;;;;;14.40;8.40;;;15.10;99.90;;;;;;5072571;28;20976;-65
2022/10/29 04:10:30;;;;;;;17.20;8.80;;;15.10;99.90;;;;;;5090876;28;20564;-64
2022/10/29 04:12:56;;;;;;;14.03;9.67;;;15.10;99.90;;;;;;5091101;28;20480;-64
2022/10/29 04:15:23;;;;;;;16.80;9.10;;;15.00;99.90;;;;;;5080219;28;20446;-64
2022/10/29 04:17:50;;;;;;;15.93;9.00;;;15.00;99.90;;;;;;5074244;28;20457;-66
2022/10/29 04:20:17;;;;;;;11.93;7.67;;;15.00;99.90;;;;;;5076107;28;20487;-65
2022/10/29 04:22:44;;;;;;;13.23;8.37;;;15.00;99.90;;;;;;5074050;28;20460;-64
2022/10/29 04:25:11;;;;;;;15.30;8.60;;;14.90;99.90;;;;;;5072134;28;20824;-64
2022/10/29 04:27:39;;;;;;;13.43;8.87;;;14.90;99.90;;;;;;5071184;28;20837;-64
2022/10/29 04:30:07;;;;;;;13.43;8.57;;;14.90;99.90;;;;;;5070016;28;20488;-63
2022/10/29 04:32:33;;;;;;;14.43;8.33;;;14.80;99.90;;;;;;5070329;28;20454;-64
2022/10/29 04:35:00;;;;;;;12.93;7.63;;;14.80;99.90;;;;;;5070751;28;20476;-65
2022/10/29 04:37:28;;;;;;;13.90;8.40;;;14.70;99.90;;;;;;5069667;28;20478;-65
2022/10/29 04:39:55;;;;;;;13.87;8.40;;;14.70;99.90;;;;;;5069827;28;20824;-62
2022/10/29 04:42:21;;;;;;;17.20;8.43;;;14.70;99.90;;;;;;5069915;28;20457;-65
2022/10/29 04:44:49;;;;;;;14.93;8.50;;;14.60;99.90;;;;;;5069966;28;20801;-64
2022/10/29 04:47:16;;;;;;;12.40;8.33;;;14.60;99.90;;;;;;5070078;28;20472;-63
2022/10/29 04:49:43;;;;;;;13.27;8.50;;;14.60;99.90;;;;;;5075567;28;20484;-65
2022/10/29 04:52:10;;;;;;;15.60;8.50;;;14.60;99.90;;;;;;5083287;28;20461;-66
2022/10/29 04:54:36;;;;;;;19.47;8.90;;;14.60;99.90;;;;;;5083928;28;20445;-67
2022/10/29 04:57:03;;;;;;;14.80;9.23;;;14.60;99.90;;;;;;5083570;28;20544;-66
2022/10/29 04:59:30;;;;;;;14.17;8.63;;;14.60;99.90;;;;;;5082674;28;20437;-64
2022/10/29 05:01:58;;;;;;;15.27;7.37;;;14.50;99.90;;;;;;5079055;28;20445;-64
2022/10/29 05:04:26;;;;;;;19.37;7.70;;;14.50;99.90;;;;;;5083600;28;20961;-64
2022/10/29 05:06:53;;;;;;;20.10;8.60;;;14.50;99.90;;;;;;5084348;28;20956;-64
2022/10/29 05:09:20;;;;;;;17.00;9.63;;;14.40;99.90;;;;;;5071242;28;20482;-65
2022/10/29 05:11:47;;;;;;;12.20;8.90;;;14.40;99.90;;;;;;5069581;28;20829;-65
2022/10/29 05:14:13;;;;;;;14.60;9.37;;;14.40;99.90;;;;;;5075836;28;20446;-64
2022/10/29 05:16:40;;;;;;;10.30;8.73;;;14.30;99.90;;;;;;5075489;28;20441;-66
2022/10/29 05:19:08;;;;;;;17.57;8.37;;;14.30;99.90;;;;;;5076364;28;20441;-64
2022/10/29 05:21:35;;;;;;;14.20;10.10;;;14.30;99.90;;;;;;5064141;28;20445;-65
2022/10/29 05:24:02;;;;;;;19.30;9.53;;;14.30;99.90;;;;;;5059411;28;20447;-64
2022/10/29 05:26:31;;;;;;;15.73;9.43;;;14.30;99.90;;;;;;5059150;28;20446;-63
2022/10/29 05:28:57;;;;;;;14.30;9.80;;;14.30;99.90;;;;;;5062065;28;20478;-65
2022/10/29 05:31:24;;;;;;;13.53;8.70;;;14.40;99.90;;;;;;5062729;28;20444;-64
2022/10/29 05:33:51;;;;;;;17.00;9.63;;;14.50;99.90;;;;;;5062844;28;20454;-63
2022/10/29 05:36:19;;;;;;;15.87;8.97;;;14.50;99.90;;;;;;5060499;28;20457;-64
2022/10/29 05:38:46;;;;;;;21.93;8.97;;;14.60;99.90;;;;;;5058229;28;20476;-63
2022/10/29 05:41:12;;;;;;;14.20;9.27;;;14.60;99.90;;;;;;5056676;28;20827;-65
2022/10/29 05:43:39;;;;;;;16.83;9.60;;;14.70;99.90;;;;;;5059278;28;20966;-65
2022/10/29 05:46:06;;;;;;;12.20;8.50;;;14.70;99.90;;;;;;5062034;28;20447;-64
2022/10/29 05:48:32;;;;;;;13.43;9.43;;;14.70;99.90;;;;;;5062369;28;20466;-64
2022/10/29 05:50:59;;;;;;;15.80;9.47;;;14.70;99.90;;;;;;5061497;28;20976;-64
2022/10/29 05:53:27;;;;;;;14.87;10.17;;;14.70;99.90;;;;;;5058987;28;20442;-64
2022/10/29 05:55:54;;;;;;;14.23;8.77;;;14.80;99.90;;;;;;5057770;28;20461;-64
2022/10/29 05:58:21;;;;;;;11.80;8.90;;;14.70;99.90;;;;;;5057533;28;21000;-63
2022/10/29 06:00:48;;;;;;;21.43;10.20;;;14.80;99.90;;;;;;5057884;28;20519;-65
2022/10/29 06:03:16;;;;;;;14.13;9.70;;;14.80;99.90;;;;;;5070488;28;20451;-63
2022/10/29 06:05:43;;;;;;;16.90;9.10;;;14.80;99.90;;;;;;5063632;28;20931;-65
2022/10/29 06:08:10;;;;;;;13.60;7.50;;;14.90;99.90;;;;;;5057333;28;20470;-65
2022/10/29 06:10:38;;;;;;;11.03;8.23;;;14.90;99.90;;;;;;5055952;28;20478;-65
2022/10/29 06:13:10;;;;;;;18.87;9.83;;;14.90;99.90;;;;;;5055528;28;20452;-64
2022/10/29 06:15:37;;;;;;;19.93;9.33;;;15.00;99.90;;;;;;5055387;28;20431;-65
2022/10/29 06:18:04;;;;;;;18.30;9.20;;;15.00;99.90;;;;;;5054951;28;20477;-64
2022/10/29 06:20:31;;;;;;;20.70;9.27;;;15.10;99.90;;;;;;5056489;28;20791;-64
2022/10/29 06:22:58;;;;;;;14.43;9.90;;;15.10;99.90;;;;;;5055381;28;20450;-65
2022/10/29 06:25:25;;;;;;;15.00;10.37;;;15.10;99.90;;;;;;5054964;28;20457;-66
2022/10/29 06:28:00;;;;;;;15.97;8.83;;;15.10;99.90;;;;;;5053851;28;20462;-65
2022/10/29 06:30:27;;;;;;;17.60;8.93;;;15.20;99.90;;;;;;5054790;28;20520;-64
2022/10/29 06:32:54;;;;;;;12.10;8.80;;;15.20;99.90;;;;;;5054051;28;20472;-64
2022/10/29 06:35:21;;;;;;;16.80;8.97;;;15.30;99.90;;;;;;5059032;28;20449;-64
2022/10/29 06:37:48;;;;;;;13.80;8.83;;;15.30;99.90;;;;;;5057829;28;20470;-64
2022/10/29 06:40:15;;;;;;;16.10;9.33;;;15.30;99.90;;;;;;5054227;28;20450;-64
2022/10/29 06:42:42;;;;;;;15.27;8.73;;;15.40;99.90;;;;;;5054702;28;20821;-64
2022/10/29 06:45:11;;;;;;;14.63;8.67;;;15.40;99.90;;;;;;5054257;28;20446;-64
2022/10/29 06:47:41;;;;;;;14.10;9.00;;;15.40;99.90;;;;;;5054165;28;21023;-65
2022/10/29 06:50:09;;;;;;;13.83;8.77;;;15.50;99.90;;;;;;5053856;28;20482;-65
2022/10/29 06:52:36;;;;;;;16.43;9.10;;;15.50;99.90;;;;;;5053670;28;20966;-66
2022/10/29 06:55:04;;;;;;;13.20;9.33;;;15.50;99.90;;;;;;5039349;28;20454;-65
2022/10/29 06:57:32;;;;;;;15.70;10.80;;;15.50;99.90;;;;;;5054205;28;20470;-63
2022/10/29 06:59:58;;;;;;;21.63;8.20;;;15.50;99.90;;;;;;5054628;28;20446;-64
2022/10/29 07:02:27;;;;;;;16.47;9.90;;;15.50;99.90;;;;;;5054080;28;20446;-64
2022/10/29 07:04:54;;;;;;;15.63;9.20;;;15.60;99.90;;;;;;5053980;28;20864;-64
2022/10/29 07:07:20;;;;;;;11.80;9.00;;;15.60;99.90;;;;;;5053648;28;20478;-63
2022/10/29 07:09:47;;;;;;;10.50;8.17;;;15.60;99.90;;;;;;5053691;28;20496;-63
2022/10/29 07:12:14;;;;;;;14.80;7.97;;;15.60;99.90;;;;;;5053437;28;20821;-64
2022/10/29 07:14:40;;;;;;;21.27;11.40;;;15.60;99.90;;;;;;5053619;28;20455;-65
2022/10/29 07:17:07;;;;;;;13.60;8.73;;;15.60;99.90;;;;;;5053226;28;20471;-64
2022/10/29 07:19:35;;;;;;;20.27;10.37;;;15.70;99.90;;;;;;5053990;28;20799;-63
2022/10/29 07:22:02;;;;;;;15.47;8.53;;;15.60;99.90;;;;;;5055082;28;20442;-65
2022/10/29 07:24:28;;;;;;;12.30;8.70;;;15.70;99.90;;;;;;5067188;28;20455;-63
2022/10/29 07:26:55;;;;;;;11.50;8.40;;;15.70;99.90;;;;;;5067096;28;20442;-65
2022/10/29 07:29:22;;;;;;;16.70;9.63;;;15.70;99.90;;;;;;5068140;28;20475;-63
2022/10/29 07:31:48;;;;;;;16.40;9.23;;;15.70;99.90;;;;;;5064873;28;20446;-63
2022/10/29 07:34:15;;;;;;;17.43;8.23;;;15.70;99.90;;;;;;5062296;28;20449;-63
2022/10/29 07:36:43;;;;;;;13.43;8.50;;;15.70;99.90;;;;;;5053155;28;20455;-65
2022/10/29 07:39:10;;;;;;;10.90;8.30;;;15.70;99.90;;;;;;5053320;28;20451;-65
2022/10/29 07:41:37;;;;;;;15.23;8.83;;;15.80;99.90;;;;;;5054161;28;20447;-64
2022/10/29 07:44:03;;;;;;;13.70;8.83;;;15.80;99.90;;;;;;5053812;28;20451;-63
2022/10/29 07:46:30;;;;;;;13.37;8.17;;;15.90;99.90;;;;;;5053745;28;20448;-64
2022/10/29 07:48:57;;;;;;;12.47;8.20;;;15.90;99.90;;;;;;5054031;28;20467;-64
2022/10/29 07:51:23;;;;;;;14.83;8.20;;;16.00;99.90;;;;;;5054013;28;20505;-64
2022/10/29 07:53:51;;;;;;;14.37;8.13;;;16.10;99.90;;;;;;5053779;28;20463;-65
2022/10/29 07:56:18;;;;;;;12.90;8.13;;;16.10;99.90;;;;;;5053349;28;20842;-64
2022/10/29 07:58:45;;;;;;;11.57;8.43;;;16.20;99.90;;;;;;5052911;28;20463;-63
2022/10/29 08:01:11;;;;;;;9.40;7.07;;;16.30;99.90;;;;;;5054123;28;20950;-64
2022/10/29 08:03:38;;;;;;;17.20;8.97;;;16.50;99.90;;;;;;5065018;28;20447;-64
2022/10/29 08:06:05;;;;;;;14.07;8.00;;;16.70;99.90;;;;;;5065268;28;20925;-63
2022/10/29 08:08:33;;;;;;;11.43;7.67;;;16.80;99.90;;;;;;5065229;28;21006;-64
2022/10/29 08:11:03;;;;;;;11.40;7.23;;;17.00;99.90;;;;;;5060212;28;20545;-64
2022/10/29 08:13:30;;;;;;;10.60;6.63;;;17.20;99.90;;;;;;5061404;28;20453;-65
2022/10/29 08:15:57;;;;;;;21.53;7.90;;;17.30;99.90;;;;;;5064365;28;20449;-64
2022/10/29 08:18:23;;;;;;;12.40;7.50;;;17.50;99.90;;;;;;5057886;28;20465;-64
2022/10/29 08:20:51;;;;;;;14.20;7.13;;;17.60;99.90;;;;;;5057689;28;20474;-62
2022/10/29 08:23:17;;;;;;;15.77;7.80;;;17.60;99.90;;;;;;5061252;28;20451;-64
2022/10/29 08:25:45;;;;;;;10.63;7.40;;;17.70;99.90;;;;;;5060595;28;20447;-64
2022/10/29 08:28:15;;;;;;;12.33;7.33;;;17.70;99.90;;;;;;5058652;28;20469;-64
2022/10/29 08:30:42;;;;;;;18.43;7.57;;;17.80;99.90;;;;;;5054108;28;20479;-65
2022/10/29 08:33:09;;;;;;;15.43;6.83;;;17.80;99.90;;;;;;5053592;28;20868;-64
2022/10/29 08:35:36;;;;;;;12.63;8.30;;;17.90;99.90;;;;;;5053374;28;20444;-64
2022/10/29 08:38:03;;;;;;;16.57;8.23;;;17.90;99.90;;;;;;5054970;28;20465;-64
2022/10/29 08:40:35;;;;;;;13.40;8.93;;;18.00;99.90;;;;;;5053800;28;20461;-63
2022/10/29 08:43:27;;;;;;;10.23;6.90;;;18.10;99.90;;;;;;5053945;28;20426;-64
2022/10/29 08:45:55;;;;;;;13.70;7.60;;;18.10;99.90;;;;;;5053685;28;20452;-63
2022/10/29 08:48:30;;;;;;;14.13;7.83;;;18.20;99.90;;;;;;5053010;28;21004;-63
2022/10/29 08:51:01;;;;;;;12.80;7.67;;;18.30;99.90;;;;;;5052971;28;20493;-65
2022/10/29 08:53:34;;;;;;;13.27;7.70;;;18.50;99.90;;;;;;5053326;28;20429;-63
2022/10/29 08:56:02;;;;;;;10.10;7.60;;;18.60;99.90;;;;;;5055268;28;20429;-64
2022/10/29 08:58:35;;;;;;;17.33;7.03;;;18.80;99.90;;;;;;5056204;28;21017;-64
2022/10/29 09:01:02;;;;;;;15.20;9.60;;;19.00;99.90;;;;;;5056674;28;20432;-64
2022/10/29 09:03:29;;;;;;;13.53;8.13;;;19.00;99.90;;;;;;5056789;28;20966;-65
2022/10/29 09:06:07;;;;;;;15.47;7.60;;;19.10;99.90;;;;;;5056520;28;20473;-64
2022/10/29 09:08:54;;;;;;;13.87;7.57;;;19.20;99.90;;;;;;5056627;28;20481;-64
2022/10/29 09:11:33;;;;;;;10.93;7.20;;;19.30;99.90;;;;;;5053810;28;20485;-64
2022/10/29 09:14:27;;;;;;;13.77;8.27;;;19.40;99.90;;;;;;5056568;28;20844;-64
2022/10/29 09:16:57;;;;;;;15.00;7.30;;;19.50;99.90;;;;;;5057011;28;20434;-64
2022/10/29 09:19:37;;;;;;;16.10;8.50;;;19.50;99.90;;;;;;5056698;28;20449;-64
2022/10/29 09:22:12;;;;;;;11.90;6.70;;;19.50;99.90;;;;;;5056340;28;20451;-63
2022/10/29 09:24:49;;;;;;;11.00;7.67;;;19.50;99.90;;;;;;5056667;28;20897;-63
2022/10/29 09:27:23;;;;;;;13.17;8.47;;;19.50;99.90;;;;;;5055727;28;20493;-63
2022/10/29 09:30:06;;;;;;;13.93;7.40;;;19.50;99.90;;;;;;5055963;28;20425;-64
2022/10/29 09:32:38;;;;;;;12.47;6.80;;;19.50;99.90;;;;;;5056143;28;20752;-64
2022/10/29 09:35:13;;;;;;;18.53;8.20;;;19.40;99.90;;;;;;5055930;28;20433;-64
2022/10/29 09:37:47;;;;;;;13.77;6.73;;;19.40;99.90;;;;;;5055911;28;20468;-64
2022/10/29 09:40:22;;;;;;;18.70;6.73;;;19.50;99.90;;;;;;5056403;28;20452;-64
2022/10/29 09:42:50;;;;;;;10.03;6.87;;;19.60;99.90;;;;;;5056130;28;20429;-64
2022/10/29 09:45:23;;;;;;;11.97;7.73;;;19.60;99.90;;;;;;5055234;28;20455;-64
2022/10/29 09:48:00;;;;;;;20.43;6.73;;;19.80;99.90;;;;;;5055438;28;20471;-63
2022/10/29 09:50:32;;;;;;;15.50;7.40;;;19.90;99.90;;;;;;5055386;28;21001;-63
2022/10/29 09:52:59;;;;;;;13.37;6.23;;;20.10;99.90;;;;;;5056000;28;20435;-63
2022/10/29 09:55:28;;;;;;;13.60;6.70;;;20.20;99.90;;;;;;5054818;28;20443;-62
2022/10/29 09:57:56;;;;;;;23.53;6.83;;;20.30;99.90;;;;;;5054786;28;20474;-63
2022/10/29 10:00:27;;;;;;;9.33;6.37;;;20.30;99.90;;;;;;5055143;28;20517;-64
2022/10/29 10:02:59;;;;;;;15.93;6.57;;;20.40;99.90;;;;;;5055115;28;20427;-64
2022/10/29 10:05:28;;;;;;;12.87;6.20;;;20.50;99.90;;;;;;5055518;28;20430;-63
2022/10/29 10:08:07;;;;;;;15.50;6.97;;;20.60;99.90;;;;;;5055120;28;20468;-64
2022/10/29 10:10:36;;;;;;;14.23;6.93;;;20.60;99.90;;;;;;5055170;28;20467;-64
2022/10/29 10:13:05;;;;;;;10.70;6.30;;;20.70;99.90;;;;;;5055337;28;20443;-63
2022/10/29 10:15:35;;;;;;;11.03;6.10;;;20.70;99.90;;;;;;5055377;28;20451;-64
2022/10/29 10:18:04;;;;;;;12.40;7.10;;;20.70;99.90;;;;;;5055084;28;21002;-63
2022/10/29 10:20:35;;;;;;;17.17;7.07;;;20.70;99.80;;;;;;5054871;28;20936;-63
2022/10/29 10:23:02;;;;;;;11.70;5.30;;;20.60;99.60;;;;;;5055681;28;20443;-64
2022/10/29 10:25:35;;;;;;;12.43;6.30;;;20.60;99.50;;;;;;5055710;28;20447;-62
2022/10/29 10:28:05;;;;;;;12.03;6.30;;;20.60;99.30;;;;;;5055408;28;20478;-64
2022/10/29 10:30:33;;;;;;;13.23;6.53;;;20.60;99.10;;;;;;5055496;28;20471;-64
2022/10/29 10:33:12;;;;;;;14.40;6.50;;;20.60;99.00;;;;;;5055311;28;20447;-64
2022/10/29 10:35:39;;;;;;;15.30;6.50;;;20.50;98.90;;;;;;5054542;28;20909;-64
2022/10/29 10:38:10;;;;;;;11.13;6.33;;;20.50;99.00;;;;;;5054316;28;20471;-63
2022/10/29 10:40:37;;;;;;;10.97;6.93;;;20.50;99.00;;;;;;5054345;28;20839;-63
2022/10/29 10:43:04;;;;;;;12.20;6.60;;;20.60;99.00;;;;;;5054901;28;20462;-66
2022/10/29 10:45:35;;;;;;;11.90;6.43;;;20.60;98.90;;;;;;5056122;28;20459;-65
2022/10/29 10:48:02;;;;;;;12.07;6.10;;;20.70;98.80;;;;;;5054553;28;20500;-65
2022/10/29 10:50:31;;;;;;;8.93;5.67;;;20.90;98.60;;;;;;5054617;28;20480;-64
2022/10/29 10:52:59;;;;;;;15.90;6.73;;;20.90;98.30;;;;;;5054468;28;20447;-65
2022/10/29 10:55:28;;;;;;;16.27;6.60;;;21.00;97.90;;;;;;5053710;28;20872;-64
2022/10/29 10:58:03;;;;;;;9.23;6.70;;;21.00;97.60;;;;;;5054109;28;20468;-64
2022/10/29 11:00:37;;;;;;;13.43;6.20;;;21.10;97.40;;;;;;5053936;28;20430;-64
2022/10/29 11:03:13;;;;;;;14.70;6.40;;;21.10;97.20;;;;;;5054047;28;20429;-64
2022/10/29 11:05:43;;;;;;;12.60;6.37;;;21.00;97.00;;;;;;5054214;28;20440;-63
2022/10/29 11:08:16;;;;;;;11.23;6.93;;;21.00;97.10;;;;;;5053545;28;20463;-63
2022/10/29 11:10:47;;;;;;;13.00;6.63;;;21.10;97.00;;;;;;5054123;28;20475;-64
2022/10/29 11:13:17;;;;;;;13.03;6.77;;;21.10;96.70;;;;;;5053546;28;20423;-64
2022/10/29 11:15:51;;;;;;;12.17;6.20;;;21.10;96.50;;;;;;5054027;28;20454;-62
2022/10/29 11:18:23;;;;;;;10.63;6.17;;;21.10;96.30;;;;;;5053384;28;20470;-64
2022/10/29 11:21:06;;;;;;;9.17;6.50;;;21.10;96.20;;;;;;5053608;28;20916;-63
2022/10/29 11:23:43;;;;;;;13.63;5.73;;;21.00;96.20;;;;;;5054075;28;20442;-64
2022/10/29 11:26:15;;;;;;;15.60;6.97;;;20.90;96.20;;;;;;5053867;28;20931;-65
2022/10/29 11:28:48;;;;;;;13.60;6.53;;;20.90;96.20;;;;;;5053766;28;20473;-63
2022/10/29 11:31:22;;;;;;;11.23;6.40;;;21.00;96.50;;;;;;5054552;28;20470;-64
2022/10/29 11:33:56;;;;;;;12.87;6.20;;;21.00;96.00;;;;;;5053803;28;20444;-63
2022/10/29 11:36:25;;;;;;;12.07;6.20;;;21.00;95.90;;;;;;5053569;28;20504;-64
2022/10/29 11:38:59;;;;;;;14.13;6.50;;;21.10;95.70;;;;;;5054240;28;20825;-63
2022/10/29 11:41:32;;;;;;;10.40;6.27;;;21.10;95.40;;;;;;5053878;28;20421;-64
2022/10/29 11:43:58;;;;;;;13.93;5.80;;;21.10;95.30;;;;;;5054876;28;20432;-65
2022/10/29 11:46:36;;;;;;;8.20;5.07;;;21.20;95.30;;;;;;5054894;28;20456;-65
2022/10/29 11:49:17;;;;;;;10.13;6.03;;;21.30;95.20;;;;;;5056123;28;20503;-64
2022/10/29 11:51:54;;;;;;;11.70;5.57;;;21.40;94.90;;;;;;5056946;28;20475;-64
2022/10/29 11:54:43;;;;;;;12.40;6.43;;;21.50;94.50;;;;;;5060463;28;20435;-65
2022/10/29 11:57:16;;;;;;;10.10;5.33;;;21.60;94.10;;;;;;5064486;28;20472;-66
2022/10/29 11:59:58;;;;;;;14.43;6.27;;;21.80;93.80;;;;;;5064030;28;20425;-64
2022/10/29 12:02:39;;;;;;;8.73;5.10;;;21.90;93.30;;;;;;5063213;28;20439;-64
2022/10/29 12:05:15;;;;;;;9.63;6.20;;;22.00;92.90;;;;;;5059324;28;20443;-64
2022/10/29 12:07:56;;;;;;;9.77;5.33;;;22.10;92.50;;;;;;5057460;28;20558;-63
2022/10/29 12:10:38;;;;;;;10.77;5.47;;;22.20;92.20;;;;;;5053547;28;20515;-63
2022/10/29 12:13:13;;;;;;;14.57;6.30;;;22.40;91.90;;;;;;5055603;28;20428;-65
2022/10/29 12:15:44;;;;;;;12.20;5.47;;;22.60;91.40;;;;;;5053295;28;20952;-64
2022/10/29 12:18:21;;;;;;;11.17;6.10;;;22.60;91.00;;;;;;5053077;28;20473;-64
2022/10/29 12:20:52;;;;;;;13.10;6.23;;;22.70;90.90;;;;;;5053593;28;20432;-65
2022/10/29 12:23:35;;;;;;;13.63;5.60;;;22.70;90.40;;;;;;5053627;28;20471;-62
2022/10/29 12:26:09;;;;;;;9.97;5.73;;;22.60;90.30;;;;;;5052753;28;20428;-64
2022/10/29 12:28:46;;;;;;;10.90;6.67;;;22.50;90.30;;;;;;5053922;28;20475;-64
2022/10/29 12:31:28;;;;;;;9.73;5.70;;;22.40;90.30;;;;;;5055605;28;20467;-64
2022/10/29 12:34:03;;;;;;;35.33;28.40;;;22.30;90.50;;;;;;5057402;28;20447;-64
2022/10/29 12:36:38;;;;;;;64.50;46.77;;;22.20;90.60;;;;;;5057388;28;20431;-64
2022/10/29 12:39:11;;;;;;;47.07;34.00;;;22.20;90.80;;;;;;5056671;28;20834;-65
2022/10/29 12:41:42;;;;;;;72.87;48.30;;;22.10;90.80;;;;;;5066005;28;20429;-64
2022/10/29 12:44:16;;;;;;;95.00;62.77;;;22.20;90.80;;;;;;5057120;28;20802;-64
2022/10/29 12:46:48;;;;;;;52.10;38.50;;;22.30;90.60;;;;;;5057150;28;20441;-66
2022/10/29 12:49:22;;;;;;;17.10;9.87;;;22.40;90.40;;;;;;5056838;28;20432;-62
2022/10/29 12:51:53;;;;;;;15.20;9.10;;;22.50;90.10;;;;;;5057010;28;20471;-63
2022/10/29 12:54:27;;;;;;;7.17;5.10;;;22.70;89.30;;;;;;5057353;28;20424;-63
2022/10/29 12:56:55;;;;;;;7.70;5.37;;;22.70;88.40;;;;;;5056552;28;20425;-63